createdAt,value
2022-10-26T00:01:22.954Z,98218.84
2022-10-26T00:03:52.012Z,98224.17
2022-10-26T00:06:24.872Z,98226.80
2022-10-26T00:08:53.274Z,98227.18
2022-10-26T00:11:21.578Z,98228.64
2022-10-26T00:13:49.832Z,98234.02
2022-10-26T00:16:24.281Z,98230.69
2022-10-26T00:18:52.602Z,98226.55
2022-10-26T00:21:20.555Z,98224.98
2022-10-26T00:23:48.416Z,98229.05
2022-10-26T00:26:17.970Z,98229.27
2022-10-26T00:28:45.894Z,98232.92
2022-10-26T00:31:16.144Z,98227.49
2022-10-26T00:33:44.848Z,98233.48
2022-10-26T00:36:17.108Z,98233.44
2022-10-26T00:38:53.401Z,98231.70
2022-10-26T00:41:24.720Z,98234.76
2022-10-26T00:43:56.552Z,98235.84
2022-10-26T00:46:32.611Z,98235.30
2022-10-26T00:49:05.241Z,98237.80
2022-10-26T00:51:39.635Z,98239.95
2022-10-26T00:54:13.394Z,98241.85
2022-10-26T00:56:42.353Z,98245.96
2022-10-26T00:59:13.644Z,98246.21
2022-10-26T01:01:44.848Z,98245.45
2022-10-26T01:04:14.137Z,98242.89
2022-10-26T01:06:43.504Z,98241.55
2022-10-26T01:09:12.679Z,98240.67
2022-10-26T01:11:40.657Z,98240.65
2022-10-26T01:14:11.653Z,98239.69
2022-10-26T01:16:47.547Z,98241.27
2022-10-26T01:19:52.040Z,98248.41
2022-10-26T01:22:24.331Z,98244.34
2022-10-26T01:24:52.331Z,98240.38
2022-10-26T01:27:30.588Z,98240.30
2022-10-26T01:30:28.565Z,98234.14
2022-10-26T01:33:14.685Z,98233.03
2022-10-26T01:35:52.592Z,98231.87
2022-10-26T01:38:47.674Z,98236.88
2022-10-26T01:41:29.271Z,98244.25
2022-10-26T01:44:03.412Z,98246.51
2022-10-26T01:46:36.839Z,98253.52
2022-10-26T01:49:10.910Z,98249.55
2022-10-26T01:51:41.960Z,98245.88
2022-10-26T01:54:10.452Z,98243.48
2022-10-26T01:56:50.755Z,98243.30
2022-10-26T01:59:48.918Z,98242.27
2022-10-26T02:02:29.747Z,98245.41
2022-10-26T02:05:30.078Z,98242.91
2022-10-26T02:08:00.962Z,98245.05
2022-10-26T02:10:28.903Z,98250.80
2022-10-26T02:13:08.802Z,98252.35
2022-10-26T02:15:55.086Z,98248.47
2022-10-26T02:18:51.850Z,98251.98
2022-10-26T02:21:29.737Z,98252.77
2022-10-26T02:23:59.534Z,98253.30
2022-10-26T02:26:33.180Z,98254.48
2022-10-26T02:29:05.314Z,98261.44
2022-10-26T02:31:35.350Z,98258.19
2022-10-26T02:34:08.657Z,98257.66
2022-10-26T02:36:42.093Z,98254.00
2022-10-26T02:39:12.863Z,98255.66
2022-10-26T02:41:44.995Z,98259.86
2022-10-26T02:44:27.180Z,98264.45
2022-10-26T02:46:56.986Z,98270.11
2022-10-26T02:49:25.461Z,98274.39
2022-10-26T02:52:09.472Z,98278.20
2022-10-26T02:54:59.241Z,98283.10
2022-10-26T02:57:39.751Z,98285.00
2022-10-26T03:00:15.533Z,98286.64
2022-10-26T03:02:48.374Z,98285.70
2022-10-26T03:05:21.557Z,98288.95
2022-10-26T03:07:49.310Z,98290.39
2022-10-26T03:10:17.515Z,98290.14
2022-10-26T03:12:46.031Z,98290.43
2022-10-26T03:15:15.462Z,98292.56
2022-10-26T03:17:43.590Z,98297.67
2022-10-26T03:20:11.776Z,98300.39
2022-10-26T03:22:41.383Z,98294.83
2022-10-26T03:27:43.037Z,98300.12
2022-10-26T03:30:11.291Z,98303.55
2022-10-26T03:32:39.168Z,98310.41
2022-10-26T03:35:07.401Z,98311.23
2022-10-26T03:37:35.629Z,98314.05
2022-10-26T03:40:03.910Z,98317.13
2022-10-26T03:42:37.011Z,98316.92
2022-10-26T03:45:06.704Z,98317.46
2022-10-26T03:47:34.788Z,98319.88
2022-10-26T03:50:02.721Z,98317.02
2022-10-26T03:52:30.602Z,98312.12
2022-10-26T03:54:58.436Z,98312.76
2022-10-26T03:57:26.382Z,98314.73
2022-10-26T03:59:54.304Z,98316.23
2022-10-26T04:02:22.215Z,98314.94
2022-10-26T04:04:50.090Z,98314.08
2022-10-26T04:07:18.120Z,98311.64
2022-10-26T04:09:46.134Z,98308.96
2022-10-26T04:12:14.121Z,98314.55
2022-10-26T04:14:42.212Z,98318.00
2022-10-26T04:17:10.209Z,98318.79
2022-10-26T04:19:38.146Z,98317.86
2022-10-26T04:22:06.056Z,98321.90
2022-10-26T04:24:34.091Z,98317.27
2022-10-26T04:27:01.941Z,98315.75
2022-10-26T04:29:29.796Z,98314.17
2022-10-26T04:31:57.802Z,98314.71
2022-10-26T04:34:25.756Z,98313.80
2022-10-26T04:36:53.735Z,98314.54
2022-10-26T04:39:21.640Z,98318.48
2022-10-26T04:41:49.589Z,98319.35
2022-10-26T04:44:17.544Z,98319.45
2022-10-26T04:46:45.460Z,98325.16
2022-10-26T04:49:13.463Z,98325.59
2022-10-26T04:51:41.550Z,98328.38
2022-10-26T04:54:09.551Z,98325.92
2022-10-26T04:56:37.479Z,98326.90
2022-10-26T04:59:05.455Z,98333.60
2022-10-26T05:01:33.621Z,98342.50
2022-10-26T05:04:01.791Z,98347.23
2022-10-26T05:06:30.394Z,98350.91
2022-10-26T05:08:58.317Z,98352.63
2022-10-26T05:11:26.198Z,98354.81
2022-10-26T05:13:54.104Z,98357.30
2022-10-26T05:16:22.033Z,98364.77
2022-10-26T05:18:50.095Z,98367.62
2022-10-26T05:21:20.355Z,98368.59
2022-10-26T05:23:55.670Z,98368.94
2022-10-26T05:26:26.677Z,98367.48
2022-10-26T05:28:57.019Z,98372.52
2022-10-26T05:31:24.952Z,98375.25
2022-10-26T05:33:52.885Z,98376.70
2022-10-26T05:36:20.857Z,98378.36
2022-10-26T05:38:48.860Z,98381.52
2022-10-26T05:41:16.780Z,98384.12
2022-10-26T05:43:48.157Z,98386.53
2022-10-26T05:46:23.701Z,98392.11
2022-10-26T05:48:51.570Z,98392.32
2022-10-26T05:51:19.465Z,98399.61
2022-10-26T05:53:47.423Z,98400.27
2022-10-26T05:56:21.112Z,98402.91
2022-10-26T05:58:49.519Z,98404.64
2022-10-26T06:01:32.984Z,98404.60
2022-10-26T06:04:14.651Z,98407.70
2022-10-26T06:06:51.548Z,98410.73
2022-10-26T06:09:19.715Z,98411.11
2022-10-26T06:14:21.298Z,98413.23
2022-10-26T06:17:01.658Z,98409.77
2022-10-26T06:19:41.736Z,98412.00
2022-10-26T06:22:47.172Z,98412.09
2022-10-26T06:25:55.056Z,98416.45
2022-10-26T06:28:36.549Z,98419.15
2022-10-26T06:31:04.969Z,98419.52
2022-10-26T06:33:33.400Z,98417.20
2022-10-26T06:36:04.600Z,98417.41
2022-10-26T06:38:35.433Z,98418.69
2022-10-26T06:41:04.614Z,98417.68
2022-10-26T06:43:35.615Z,98420.39
2022-10-26T06:46:41.076Z,98411.81
2022-10-26T06:49:31.649Z,98418.50
2022-10-26T06:52:12.096Z,98426.17
2022-10-26T06:54:51.998Z,98435.32
2022-10-26T06:57:22.792Z,98440.27
2022-10-26T07:00:01.295Z,98439.67
2022-10-26T07:02:29.989Z,98444.43
2022-10-26T07:04:57.987Z,98442.77
2022-10-26T07:07:29.170Z,98442.55
2022-10-26T07:09:57.342Z,98442.27
2022-10-26T07:12:32.144Z,98444.40
2022-10-26T07:15:03.353Z,98446.23
2022-10-26T07:17:31.456Z,98447.88
2022-10-26T07:19:59.386Z,98445.95
2022-10-26T07:22:27.221Z,98447.17
2022-10-26T07:24:57.037Z,98447.58
2022-10-26T07:27:34.052Z,98449.05
2022-10-26T07:30:05.149Z,98450.97
2022-10-26T07:32:33.196Z,98453.30
2022-10-26T07:35:02.056Z,98452.01
2022-10-26T07:37:30.219Z,98450.62
2022-10-26T07:40:01.410Z,98448.73
2022-10-26T07:42:38.070Z,98445.84
2022-10-26T07:45:06.704Z,98444.81
2022-10-26T07:47:34.807Z,98442.52
2022-10-26T07:50:03.595Z,98445.23
2022-10-26T07:52:31.744Z,98447.27
2022-10-26T07:54:59.818Z,98444.10
2022-10-26T07:57:27.669Z,98443.96
2022-10-26T07:59:56.073Z,98446.59
2022-10-26T08:02:24.582Z,98453.78
2022-10-26T08:04:52.539Z,98449.74
2022-10-26T08:07:26.232Z,98451.23
2022-10-26T08:09:54.301Z,98455.79
2022-10-26T08:12:22.437Z,98452.04
2022-10-26T08:14:50.446Z,98458.73
2022-10-26T08:17:18.511Z,98457.27
2022-10-26T08:19:48.478Z,98452.69
2022-10-26T08:22:16.757Z,98454.39
2022-10-26T08:24:46.936Z,98452.94
2022-10-26T08:27:15.681Z,98453.13
2022-10-26T08:29:44.004Z,98447.93
2022-10-26T08:32:12.044Z,98454.94
2022-10-26T08:34:40.025Z,98454.38
2022-10-26T08:37:08.323Z,98452.58
2022-10-26T08:39:36.382Z,98450.91
2022-10-26T08:42:13.700Z,98455.62
2022-10-26T08:44:47.674Z,98458.02
2022-10-26T08:47:23.571Z,98453.94
2022-10-26T08:49:59.325Z,98453.64
2022-10-26T08:52:36.508Z,98452.58
2022-10-26T08:55:09.492Z,98453.05
2022-10-26T08:57:41.548Z,98452.70
2022-10-26T09:00:15.683Z,98452.52
2022-10-26T09:02:43.775Z,98451.99
2022-10-26T09:05:18.018Z,98457.86
2022-10-26T09:08:08.960Z,98460.46
2022-10-26T09:11:02.858Z,98453.93
2022-10-26T09:14:09.380Z,98458.17
2022-10-26T09:16:47.984Z,98461.77
2022-10-26T09:19:30.746Z,98466.58
2022-10-26T09:22:18.067Z,98466.14
2022-10-26T09:24:57.355Z,98460.58
2022-10-26T09:27:28.824Z,98457.48
2022-10-26T09:29:59.821Z,98456.89
2022-10-26T09:32:45.404Z,98458.19
2022-10-26T09:35:23.478Z,98463.00
2022-10-26T09:38:06.228Z,98463.66
2022-10-26T09:40:58.667Z,98458.75
2022-10-26T09:43:57.855Z,98461.91
2022-10-26T09:46:31.984Z,98456.83
2022-10-26T09:49:08.378Z,98455.38
2022-10-26T09:51:38.921Z,98453.78
2022-10-26T09:54:16.257Z,98454.84
2022-10-26T09:56:47.820Z,98456.90
2022-10-26T09:59:18.399Z,98458.91
2022-10-26T10:01:46.366Z,98462.67
2022-10-26T10:04:14.303Z,98460.67
2022-10-26T10:06:43.924Z,98460.23
2022-10-26T10:09:16.176Z,98461.20
2022-10-26T10:12:03.914Z,98460.41
2022-10-26T10:14:39.849Z,98459.33
2022-10-26T10:17:19.810Z,98461.83
2022-10-26T10:19:48.049Z,98459.29
2022-10-26T10:22:15.946Z,98454.88
2022-10-26T10:24:54.517Z,98453.18
2022-10-26T10:27:23.453Z,98452.56
2022-10-26T10:29:59.664Z,98450.87
2022-10-26T10:32:35.793Z,98449.40
2022-10-26T10:35:24.165Z,98444.27
2022-10-26T10:37:52.772Z,98444.65
2022-10-26T10:40:22.169Z,98441.85
2022-10-26T10:42:53.032Z,98438.02
2022-10-26T10:45:29.977Z,98435.03
2022-10-26T10:48:15.138Z,98434.17
2022-10-26T10:51:11.059Z,98433.42
2022-10-26T10:53:42.183Z,98429.23
2022-10-26T10:56:42.298Z,98418.85
2022-10-26T11:00:11.252Z,98424.71
2022-10-26T11:02:48.180Z,98429.79
2022-10-26T11:05:32.627Z,98430.63
2022-10-26T11:08:06.049Z,98431.11
2022-10-26T11:10:40.962Z,98431.19
2022-10-26T11:13:31.680Z,98432.30
2022-10-26T11:16:07.551Z,98433.79
2022-10-26T11:18:45.381Z,98436.08
2022-10-26T11:21:28.997Z,98431.95
2022-10-26T11:24:18.934Z,98428.66
2022-10-26T11:27:04.027Z,98430.42
2022-10-26T11:29:42.492Z,98431.21
2022-10-26T11:32:14.609Z,98436.14
2022-10-26T11:35:31.337Z,98440.88
2022-10-26T11:38:18.107Z,98442.77
2022-10-26T11:40:56.134Z,98443.66
2022-10-26T11:43:41.771Z,98444.67
2022-10-26T11:46:19.329Z,98443.27
2022-10-26T11:49:07.198Z,98442.30
2022-10-26T11:51:51.608Z,98445.61
2022-10-26T11:54:32.762Z,98446.09
2022-10-26T11:57:04.532Z,98445.94
2022-10-26T11:59:55.246Z,98448.27
2022-10-26T12:02:26.970Z,98449.85
2022-10-26T12:05:08.724Z,98449.80
2022-10-26T12:07:40.866Z,98446.66
2022-10-26T12:10:24.916Z,98446.05
2022-10-26T12:13:15.743Z,98446.18
2022-10-26T12:16:03.383Z,98446.88
2022-10-26T12:18:59.743Z,98445.57
2022-10-26T12:21:31.252Z,98450.60
2022-10-26T12:24:21.438Z,98450.98
2022-10-26T12:26:57.843Z,98445.00
2022-10-26T12:29:46.073Z,98448.39
2022-10-26T12:32:32.307Z,98447.41
2022-10-26T12:35:04.397Z,98443.77
2022-10-26T12:37:37.894Z,98447.92
2022-10-26T12:40:30.712Z,98445.59
2022-10-26T12:43:18.841Z,98440.20
2022-10-26T12:46:07.802Z,98446.64
2022-10-26T12:48:43.395Z,98452.14
2022-10-26T12:51:39.884Z,98450.90
2022-10-26T12:54:31.458Z,98455.13
2022-10-26T12:57:14.549Z,98456.80
2022-10-26T12:59:52.519Z,98459.45
2022-10-26T13:02:43.968Z,98457.16
2022-10-26T13:05:27.044Z,98457.70
2022-10-26T13:08:03.719Z,98461.26
2022-10-26T13:10:32.574Z,98462.45
2022-10-26T13:13:05.292Z,98466.48
2022-10-26T13:15:40.277Z,98466.39
2022-10-26T13:18:14.533Z,98465.99
2022-10-26T13:21:13.811Z,98465.42
2022-10-26T13:24:04.257Z,98460.33
2022-10-26T13:26:33.293Z,98459.62
2022-10-26T13:29:03.776Z,98461.17
2022-10-26T13:31:31.714Z,98462.77
2022-10-26T13:34:12.733Z,98463.17
2022-10-26T13:37:00.221Z,98468.55
2022-10-26T13:39:36.691Z,98474.30
2022-10-26T13:42:07.010Z,98474.38
2022-10-26T13:44:48.876Z,98473.51
2022-10-26T13:47:32.817Z,98472.92
2022-10-26T13:50:11.765Z,98475.58
2022-10-26T13:52:43.492Z,98476.37
2022-10-26T13:55:22.284Z,98481.14
2022-10-26T13:58:05.494Z,98485.55
2022-10-26T14:00:37.774Z,98485.88
2022-10-26T14:03:21.366Z,98485.48
2022-10-26T14:05:51.178Z,98482.02
2022-10-26T14:08:22.016Z,98484.45
2022-10-26T14:10:59.231Z,98488.55
2022-10-26T14:13:29.091Z,98487.54
2022-10-26T14:15:58.997Z,98487.59
2022-10-26T14:18:30.728Z,98486.86
2022-10-26T14:21:06.427Z,98490.23
2022-10-26T14:23:36.330Z,98490.83
2022-10-26T14:26:04.709Z,98492.73
2022-10-26T14:28:40.413Z,98492.21
2022-10-26T14:31:23.858Z,98490.96
2022-10-26T14:33:53.443Z,98495.95
2022-10-26T14:36:32.131Z,98495.46
2022-10-26T14:39:13.009Z,98494.96
2022-10-26T14:41:41.250Z,98495.86
2022-10-26T14:44:21.648Z,98494.34
2022-10-26T14:46:50.612Z,98496.78
2022-10-26T14:49:27.516Z,98497.40
2022-10-26T14:52:28.943Z,98495.98
2022-10-26T14:55:19.447Z,98498.36
2022-10-26T14:57:51.303Z,98501.94
2022-10-26T15:00:21.515Z,98506.98
2022-10-26T15:05:35.756Z,98513.70
2022-10-26T15:08:04.006Z,98514.02
2022-10-26T15:10:38.424Z,98518.02
2022-10-26T15:13:10.611Z,98521.48
2022-10-26T15:15:39.768Z,98525.15
2022-10-26T15:18:36.489Z,98526.50
2022-10-26T15:21:19.492Z,98533.05
2022-10-26T15:23:47.924Z,98535.74
2022-10-26T15:26:15.920Z,98535.17
2022-10-26T15:28:44.283Z,98535.60
2022-10-26T15:31:12.217Z,98537.95
2022-10-26T15:34:03.567Z,98541.77
2022-10-26T15:36:32.747Z,98542.27
2022-10-26T15:39:00.736Z,98542.80
2022-10-26T15:41:40.155Z,98546.70
2022-10-26T15:44:19.134Z,98548.09
2022-10-26T15:46:49.256Z,98550.15
2022-10-26T15:49:21.388Z,98550.64
2022-10-26T15:51:49.595Z,98553.75
2022-10-26T15:54:17.494Z,98553.77
2022-10-26T15:56:45.866Z,98556.19
2022-10-26T15:59:19.168Z,98554.56
2022-10-26T16:01:47.151Z,98554.73
2022-10-26T16:04:15.245Z,98558.07
2022-10-26T16:06:43.272Z,98558.38
2022-10-26T16:09:16.095Z,98563.77
2022-10-26T16:11:45.042Z,98567.48
2022-10-26T16:14:13.327Z,98570.16
2022-10-26T16:16:41.529Z,98571.33
2022-10-26T16:19:29.862Z,98573.35
2022-10-26T16:22:01.558Z,98575.42
2022-10-26T16:24:31.042Z,98576.27
2022-10-26T16:26:59.240Z,98574.20
2022-10-26T16:29:27.391Z,98578.27
2022-10-26T16:31:55.956Z,98578.27
2022-10-26T16:34:23.869Z,98575.95
2022-10-26T16:36:51.881Z,98579.41
2022-10-26T16:39:19.764Z,98579.73
2022-10-26T16:41:49.768Z,98579.34
2022-10-26T16:44:17.687Z,98581.03
2022-10-26T16:46:45.800Z,98580.25
2022-10-26T16:49:13.920Z,98581.01
2022-10-26T16:51:42.045Z,98583.99
2022-10-26T16:54:10.870Z,98588.73
2022-10-26T16:56:38.978Z,98591.61
2022-10-26T16:59:06.931Z,98594.44
2022-10-26T17:01:35.819Z,98593.65
2022-10-26T17:06:36.711Z,98597.56
2022-10-26T17:09:04.655Z,98600.23
2022-10-26T17:11:32.643Z,98600.84
2022-10-26T17:14:03.076Z,98599.84
2022-10-26T17:16:31.017Z,98603.73
2022-10-26T17:18:58.869Z,98601.41
2022-10-26T17:21:34.928Z,98606.70
2022-10-26T17:24:06.140Z,98606.44
2022-10-26T17:26:34.232Z,98610.35
2022-10-26T17:29:02.245Z,98611.39
2022-10-26T17:31:30.343Z,98611.30
2022-10-26T17:33:58.737Z,98611.55
2022-10-26T17:36:27.524Z,98613.98
2022-10-26T17:38:57.600Z,98611.93
2022-10-26T17:41:25.613Z,98613.89
2022-10-26T17:43:53.756Z,98614.07
2022-10-26T17:46:24.589Z,98619.39
2022-10-26T17:48:57.526Z,98619.08
2022-10-26T17:51:26.931Z,98623.95
2022-10-26T17:53:59.835Z,98622.51
2022-10-26T17:56:31.062Z,98628.41
2022-10-26T17:59:05.632Z,98629.94
2022-10-26T18:01:33.900Z,98639.10
2022-10-26T18:04:01.938Z,98635.25
2022-10-26T18:06:30.104Z,98635.95
2022-10-26T18:08:59.035Z,98635.04
2022-10-26T18:11:28.552Z,98636.27
2022-10-26T18:13:57.547Z,98639.13
2022-10-26T18:16:27.314Z,98636.93
2022-10-26T18:19:00.841Z,98636.25
2022-10-26T18:21:33.417Z,98638.72
2022-10-26T18:24:02.705Z,98639.48
2022-10-26T18:26:35.000Z,98643.92
2022-10-26T18:29:04.457Z,98644.52
2022-10-26T18:31:36.827Z,98649.24
2022-10-26T18:34:06.566Z,98655.73
2022-10-26T18:36:34.920Z,98661.60
2022-10-26T18:39:03.735Z,98666.16
2022-10-26T18:41:31.815Z,98670.41
2022-10-26T18:43:59.897Z,98672.60
2022-10-26T18:46:38.200Z,98675.54
2022-10-26T18:49:06.401Z,98677.88
2022-10-26T18:51:35.024Z,98680.14
2022-10-26T18:54:03.497Z,98682.50
2022-10-26T18:56:31.573Z,98688.94
2022-10-26T18:59:00.894Z,98689.84
2022-10-26T19:01:32.287Z,98689.84
2022-10-26T19:04:08.596Z,98694.09
2022-10-26T19:06:43.141Z,98696.02
2022-10-26T19:09:11.231Z,98700.64
2022-10-26T19:11:39.537Z,98702.13
2022-10-26T19:14:08.129Z,98707.38
2022-10-26T19:16:46.459Z,98712.18
2022-10-26T19:19:17.074Z,98716.98
2022-10-26T19:21:51.291Z,98719.07
2022-10-26T19:24:21.541Z,98721.64
2022-10-26T19:26:51.234Z,98724.18
2022-10-26T19:29:20.347Z,98725.52
2022-10-26T19:31:51.870Z,98730.88
2022-10-26T19:34:20.045Z,98738.54
2022-10-26T19:36:48.124Z,98743.94
2022-10-26T19:39:17.409Z,98746.89
2022-10-26T19:41:46.749Z,98751.11
2022-10-26T19:44:15.556Z,98752.95
2022-10-26T19:46:45.388Z,98755.27
2022-10-26T19:49:19.645Z,98757.34
2022-10-26T19:51:48.498Z,98759.04
2022-10-26T19:54:16.326Z,98760.34
2022-10-26T19:56:44.190Z,98761.50
2022-10-26T19:59:12.389Z,98764.62
2022-10-26T20:01:40.620Z,98767.15
2022-10-26T20:04:14.885Z,98770.14
2022-10-26T20:06:43.252Z,98770.44
2022-10-26T20:09:14.125Z,98772.48
2022-10-26T20:11:43.129Z,98775.02
2022-10-26T20:14:14.166Z,98778.83
2022-10-26T20:16:42.292Z,98781.94
2022-10-26T20:19:10.515Z,98784.95
2022-10-26T20:21:38.549Z,98784.66
2022-10-26T20:24:10.032Z,98787.38
2022-10-26T20:26:38.569Z,98788.17
2022-10-26T20:29:06.489Z,98784.91
2022-10-26T20:31:34.338Z,98782.14
2022-10-26T20:34:02.450Z,98781.62
2022-10-26T20:36:30.529Z,98782.16
2022-10-26T20:38:59.016Z,98786.02
2022-10-26T20:41:27.227Z,98782.11
2022-10-26T20:43:58.030Z,98776.86
2022-10-26T20:46:31.639Z,98780.70
2022-10-26T20:48:59.872Z,98784.38
2022-10-26T20:51:41.915Z,98781.92
2022-10-26T20:55:05.169Z,98788.69
2022-10-26T20:57:35.357Z,98789.10
2022-10-26T21:00:10.613Z,98787.46
2022-10-26T21:02:42.461Z,98786.98
2022-10-26T21:05:10.459Z,98784.29
2022-10-26T21:07:38.434Z,98783.41
2022-10-26T21:10:06.875Z,98781.70
2022-10-26T21:12:34.855Z,98779.50
2022-10-26T21:15:03.125Z,98781.35
2022-10-26T21:17:34.428Z,98782.63
2022-10-26T21:20:09.566Z,98784.97
2022-10-26T21:22:37.344Z,98784.00
2022-10-26T21:25:05.670Z,98782.12
2022-10-26T21:27:33.544Z,98785.85
2022-10-26T21:30:01.592Z,98785.44
2022-10-26T21:32:29.967Z,98783.52
2022-10-26T21:34:57.840Z,98779.00
2022-10-26T21:37:26.597Z,98781.61
2022-10-26T21:39:54.865Z,98789.80
2022-10-26T21:42:22.909Z,98794.54
2022-10-26T21:44:50.818Z,98795.83
2022-10-26T21:47:18.888Z,98794.51
2022-10-26T21:49:46.758Z,98793.64
2022-10-26T21:52:14.815Z,98790.16
2022-10-26T21:54:42.826Z,98788.73
2022-10-26T21:57:10.900Z,98787.64
2022-10-26T21:59:38.863Z,98789.01
2022-10-26T22:02:06.899Z,98783.73
2022-10-26T22:04:34.804Z,98782.29
2022-10-26T22:07:02.805Z,98783.70
2022-10-26T22:09:30.887Z,98786.58
2022-10-26T22:11:58.752Z,98782.51
2022-10-26T22:14:26.801Z,98783.20
2022-10-26T22:16:54.669Z,98779.60
2022-10-26T22:19:22.777Z,98776.01
2022-10-26T22:21:50.794Z,98776.77
2022-10-26T22:24:18.852Z,98776.23
2022-10-26T22:26:46.735Z,98779.94
2022-10-26T22:29:14.608Z,98782.27
2022-10-26T22:31:42.514Z,98783.98
2022-10-26T22:34:18.319Z,98783.56
2022-10-26T22:36:46.309Z,98784.48
2022-10-26T22:39:14.600Z,98785.64
2022-10-26T22:41:45.922Z,98792.54
2022-10-26T22:44:17.610Z,98794.52
2022-10-26T22:46:45.477Z,98794.14
2022-10-26T22:49:16.221Z,98797.55
2022-10-26T22:52:12.417Z,98796.99
2022-10-26T22:54:40.289Z,98799.83
2022-10-26T22:57:08.580Z,98799.50
2022-10-26T22:59:36.576Z,98804.45
2022-10-26T23:02:04.560Z,98807.16
2022-10-26T23:04:32.816Z,98807.40
2022-10-26T23:07:00.772Z,98802.13
2022-10-26T23:09:28.656Z,98801.33
2022-10-26T23:11:56.988Z,98799.37
2022-10-26T23:14:24.839Z,98799.29
2022-10-26T23:16:52.908Z,98800.77
2022-10-26T23:19:20.890Z,98801.72
2022-10-26T23:21:48.786Z,98803.77
2022-10-26T23:24:16.618Z,98802.67
2022-10-26T23:26:44.553Z,98803.48
2022-10-26T23:29:12.804Z,98805.97
2022-10-26T23:31:40.694Z,98801.02
2022-10-26T23:34:09.437Z,98800.95
2022-10-26T23:36:37.496Z,98801.29
2022-10-26T23:39:05.437Z,98808.33
2022-10-26T23:41:33.340Z,98811.85
2022-10-26T23:44:01.224Z,98812.52
2022-10-26T23:46:29.202Z,98816.63
2022-10-26T23:48:57.167Z,98818.44
2022-10-26T23:51:25.121Z,98816.13
2022-10-26T23:53:54.229Z,98821.02
2022-10-26T23:56:22.230Z,98820.41
2022-10-26T23:58:51.049Z,98821.10
